Overview Statistics Trail Chart Weather Telemetry Raw packets
 

This is the latest recevied weather packets stored in our database for station/object R2AKT-13. If no packets are shown the sender has not sent any weather packets the latest 10 day(s).

<< 23 24 25 26 27 28 29 >>
Time Temp. Humidity Pressure Rain* Wind** Luminosity Snow
1788392871 14.44° C 81% 988.4 hPa - 0.45 m/s, 257° - -
1788392276 14.44° C 81% 988.4 hPa - 0.45 m/s, 214° - -
1788391791 14.44° C 81% 988.4 hPa - 1.34 m/s, 270° - -
1788391241 14.44° C 82% 988.4 hPa - 1.34 m/s, 270° - -
1788390651 14.44° C 81% 988.3 hPa - 1.34 m/s, 262° - -
1788390091 14.44° C 81% 988.3 hPa - 0.89 m/s, 241° - -
1788389541 14.44° C 81% 988.3 hPa - 0.89 m/s, 200° - -
1788389056 14.44° C 82% 988.2 hPa - 1.34 m/s, 255° - -
1788388546 14.44° C 81% 988.3 hPa - 0.89 m/s, 154° - -
1788388031 14.44° C 81% 988.2 hPa - 0.89 m/s, 211° - -
1788387516 14.44° C 82% 988.4 hPa - 0.89 m/s, 201° - -
1788386958 14.44° C 82% 988.2 hPa - 1.34 m/s, 244° - -
1788386436 14.44° C 82% 988.3 hPa - 0 m/s - -
1788385951 14.44° C 82% 988.3 hPa - 0.45 m/s, 242° - -
1788385381 14.44° C 84% 988.2 hPa - 0.45 m/s, 260° - -
1788384831 14.44° C 83% 988.2 hPa - 0.45 m/s, 249° - -
1788384345 14.44° C 83% 988.2 hPa - 0.45 m/s, 263° - -
1788383765 14.44° C 84% 988.1 hPa - 0.89 m/s, 271° - -
1788383216 14.44° C 83% 988.1 hPa - 0.45 m/s, 266° - -
1788382704 14.44° C 82% 988.1 hPa - 0 m/s - -
1788382221 14.44° C 82% 988.2 hPa - 0.89 m/s, 267° - -
1788381646 14.44° C 82% 988.2 hPa - 0.89 m/s, 263° - -
1788381071 15° C 81% 988.1 hPa - 0.45 m/s, 256° - -
1788380581 14.44° C 82% 988 hPa - 1.79 m/s, 269° - -
1788380006 14.44° C 81% 988 hPa - 0.89 m/s, 265° - -

* Rain since midnight (hover to see other rain measurements)
** Current wind speed in m/s (hover to see current wind gust speed)